sensor_id;sensor_type;location;lat;lon;timestamp;temperature;humidity
6375;DHT22;35400;45.472;-122.822;2023-02-11T00:01:12;12.30;99.90
6375;DHT22;35400;45.472;-122.822;2023-02-11T00:03:40;12.30;99.90
6375;DHT22;35400;45.472;-122.822;2023-02-11T00:06:09;12.30;99.90
6375;DHT22;35400;45.472;-122.822;2023-02-11T00:08:38;12.20;99.90
6375;DHT22;35400;45.472;-122.822;2023-02-11T00:11:05;12.20;99.90
6375;DHT22;35400;45.472;-122.822;2023-02-11T00:13:33;12.20;99.90
6375;DHT22;35400;45.472;-122.822;2023-02-11T00:16:04;12.20;99.90
6375;DHT22;35400;45.472;-122.822;2023-02-11T00:18:31;12.20;99.90
6375;DHT22;35400;45.472;-122.822;2023-02-11T00:20:58;12.20;99.90
6375;DHT22;35400;45.472;-122.822;2023-02-11T00:23:25;12.20;99.90
6375;DHT22;35400;45.472;-122.822;2023-02-11T00:25:51;12.10;99.90
6375;DHT22;35400;45.472;-122.822;2023-02-11T00:28:18;12.10;99.90
6375;DHT22;35400;45.472;-122.822;2023-02-11T00:30:45;12.10;99.90
6375;DHT22;35400;45.472;-122.822;2023-02-11T00:33:19;12.00;99.90
6375;DHT22;35400;45.472;-122.822;2023-02-11T00:35:46;12.00;99.90
6375;DHT22;35400;45.472;-122.822;2023-02-11T00:38:13;11.90;99.90
6375;DHT22;35400;45.472;-122.822;2023-02-11T00:40:40;11.80;99.90
6375;DHT22;35400;45.472;-122.822;2023-02-11T00:43:07;11.80;99.90
6375;DHT22;35400;45.472;-122.822;2023-02-11T00:45:33;11.70;99.90
6375;DHT22;35400;45.472;-122.822;2023-02-11T00:48:01;11.60;99.90
6375;DHT22;35400;45.472;-122.822;2023-02-11T00:50:28;11.60;99.90
6375;DHT22;35400;45.472;-122.822;2023-02-11T00:52:55;11.50;99.90
6375;DHT22;35400;45.472;-122.822;2023-02-11T00:55:22;11.50;99.90
6375;DHT22;35400;45.472;-122.822;2023-02-11T00:57:48;11.50;99.90
6375;DHT22;35400;45.472;-122.822;2023-02-11T01:00:16;11.40;99.90
6375;DHT22;35400;45.472;-122.822;2023-02-11T01:02:44;11.30;99.90
6375;DHT22;35400;45.472;-122.822;2023-02-11T01:05:11;11.30;99.90
6375;DHT22;35400;45.472;-122.822;2023-02-11T01:07:37;11.20;99.90
6375;DHT22;35400;45.472;-122.822;2023-02-11T01:10:05;11.10;99.90
6375;DHT22;35400;45.472;-122.822;2023-02-11T01:12:31;11.00;99.90
6375;DHT22;35400;45.472;-122.822;2023-02-11T01:14:58;11.00;99.90
6375;DHT22;35400;45.472;-122.822;2023-02-11T01:17:25;10.90;99.90
6375;DHT22;35400;45.472;-122.822;2023-02-11T01:19:52;10.80;99.90
6375;DHT22;35400;45.472;-122.822;2023-02-11T01:22:20;10.80;99.90
6375;DHT22;35400;45.472;-122.822;2023-02-11T01:24:47;10.70;99.90
6375;DHT22;35400;45.472;-122.822;2023-02-11T01:27:14;10.70;99.90
6375;DHT22;35400;45.472;-122.822;2023-02-11T01:29:41;10.70;99.90
6375;DHT22;35400;45.472;-122.822;2023-02-11T01:32:07;10.60;99.90
6375;DHT22;35400;45.472;-122.822;2023-02-11T01:34:34;10.60;99.90
6375;DHT22;35400;45.472;-122.822;2023-02-11T01:37:01;10.50;99.90
6375;DHT22;35400;45.472;-122.822;2023-02-11T01:39:28;10.50;99.90
6375;DHT22;35400;45.472;-122.822;2023-02-11T01:41:58;10.40;99.90
6375;DHT22;35400;45.472;-122.822;2023-02-11T01:44:30;10.40;99.90
6375;DHT22;35400;45.472;-122.822;2023-02-11T01:46:59;10.40;99.90
6375;DHT22;35400;45.472;-122.822;2023-02-11T01:49:41;10.40;99.90
6375;DHT22;35400;45.472;-122.822;2023-02-11T01:52:24;10.30;99.90
6375;DHT22;35400;45.472;-122.822;2023-02-11T01:54:56;10.30;99.90
6375;DHT22;35400;45.472;-122.822;2023-02-11T01:57:47;10.30;99.90
6375;DHT22;35400;45.472;-122.822;2023-02-11T02:00:24;10.20;99.90
6375;DHT22;35400;45.472;-122.822;2023-02-11T02:03:12;10.20;99.90
6375;DHT22;35400;45.472;-122.822;2023-02-11T02:11:08;10.10;99.90
6375;DHT22;35400;45.472;-122.822;2023-02-11T02:13:37;10.10;99.90
6375;DHT22;35400;45.472;-122.822;2023-02-11T02:16:07;10.00;99.90
6375;DHT22;35400;45.472;-122.822;2023-02-11T02:18:41;10.00;99.90
6375;DHT22;35400;45.472;-122.822;2023-02-11T02:21:35;10.00;99.90
6375;DHT22;35400;45.472;-122.822;2023-02-11T02:33:47;10.00;99.90
6375;DHT22;35400;45.472;-122.822;2023-02-11T02:36:33;9.90;99.90
6375;DHT22;35400;45.472;-122.822;2023-02-11T02:39:20;9.90;99.90
6375;DHT22;35400;45.472;-122.822;2023-02-11T02:41:50;9.90;99.90
6375;DHT22;35400;45.472;-122.822;2023-02-11T02:44:18;9.90;99.90
6375;DHT22;35400;45.472;-122.822;2023-02-11T02:46:45;9.80;99.90
6375;DHT22;35400;45.472;-122.822;2023-02-11T02:49:13;9.80;99.90
6375;DHT22;35400;45.472;-122.822;2023-02-11T02:51:44;9.80;99.90
6375;DHT22;35400;45.472;-122.822;2023-02-11T03:00:39;9.60;99.90
6375;DHT22;35400;45.472;-122.822;2023-02-11T03:05:49;9.60;99.90
6375;DHT22;35400;45.472;-122.822;2023-02-11T03:08:39;9.50;99.90
6375;DHT22;35400;45.472;-122.822;2023-02-11T03:11:09;9.50;99.90
6375;DHT22;35400;45.472;-122.822;2023-02-11T03:13:38;9.40;99.90
6375;DHT22;35400;45.472;-122.822;2023-02-11T03:16:22;9.40;99.90
6375;DHT22;35400;45.472;-122.822;2023-02-11T03:19:00;9.40;99.90
6375;DHT22;35400;45.472;-122.822;2023-02-11T03:21:29;9.30;99.90
6375;DHT22;35400;45.472;-122.822;2023-02-11T03:24:05;9.30;99.90
6375;DHT22;35400;45.472;-122.822;2023-02-11T03:26:57;9.20;99.90
6375;DHT22;35400;45.472;-122.822;2023-02-11T03:35:09;9.10;99.90
6375;DHT22;35400;45.472;-122.822;2023-02-11T03:37:54;9.00;99.90
6375;DHT22;35400;45.472;-122.822;2023-02-11T03:40:25;8.90;99.90
6375;DHT22;35400;45.472;-122.822;2023-02-11T03:42:58;8.90;99.90
6375;DHT22;35400;45.472;-122.822;2023-02-11T03:45:27;8.80;99.90
6375;DHT22;35400;45.472;-122.822;2023-02-11T03:48:08;8.80;99.90
6375;DHT22;35400;45.472;-122.822;2023-02-11T03:50:37;8.70;99.90
6375;DHT22;35400;45.472;-122.822;2023-02-11T03:53:07;8.70;99.90
6375;DHT22;35400;45.472;-122.822;2023-02-11T03:55:37;8.70;99.90
6375;DHT22;35400;45.472;-122.822;2023-02-11T03:58:05;8.60;99.90
6375;DHT22;35400;45.472;-122.822;2023-02-11T04:00:35;8.60;99.90
6375;DHT22;35400;45.472;-122.822;2023-02-11T04:03:03;8.60;99.90
6375;DHT22;35400;45.472;-122.822;2023-02-11T04:05:31;8.50;99.90
6375;DHT22;35400;45.472;-122.822;2023-02-11T04:07:58;8.50;99.90
6375;DHT22;35400;45.472;-122.822;2023-02-11T04:10:25;8.40;99.90
6375;DHT22;35400;45.472;-122.822;2023-02-11T04:12:51;8.40;99.90
6375;DHT22;35400;45.472;-122.822;2023-02-11T04:15:18;8.40;99.90
6375;DHT22;35400;45.472;-122.822;2023-02-11T04:17:45;8.30;99.90
6375;DHT22;35400;45.472;-122.822;2023-02-11T04:20:12;8.30;99.90
6375;DHT22;35400;45.472;-122.822;2023-02-11T04:22:39;8.20;99.90
6375;DHT22;35400;45.472;-122.822;2023-02-11T04:25:06;8.20;99.90
6375;DHT22;35400;45.472;-122.822;2023-02-11T04:27:34;8.10;99.90
6375;DHT22;35400;45.472;-122.822;2023-02-11T04:30:00;8.10;99.90
6375;DHT22;35400;45.472;-122.822;2023-02-11T04:32:27;8.00;99.90
6375;DHT22;35400;45.472;-122.822;2023-02-11T04:34:54;8.00;99.90
6375;DHT22;35400;45.472;-122.822;2023-02-11T04:37:21;7.90;99.90
6375;DHT22;35400;45.472;-122.822;2023-02-11T04:39:48;7.90;99.90
6375;DHT22;35400;45.472;-122.822;2023-02-11T04:42:14;7.80;99.90
6375;DHT22;35400;45.472;-122.822;2023-02-11T04:44:41;7.80;99.90
6375;DHT22;35400;45.472;-122.822;2023-02-11T04:47:08;7.70;99.90
6375;DHT22;35400;45.472;-122.822;2023-02-11T04:49:37;7.70;99.90
6375;DHT22;35400;45.472;-122.822;2023-02-11T04:52:04;7.60;99.90
6375;DHT22;35400;45.472;-122.822;2023-02-11T04:54:31;7.60;99.90
6375;DHT22;35400;45.472;-122.822;2023-02-11T04:56:58;7.60;99.90
6375;DHT22;35400;45.472;-122.822;2023-02-11T04:59:25;7.50;99.90
6375;DHT22;35400;45.472;-122.822;2023-02-11T05:01:52;7.50;99.90
6375;DHT22;35400;45.472;-122.822;2023-02-11T05:04:18;7.40;99.90
6375;DHT22;35400;45.472;-122.822;2023-02-11T05:06:45;7.40;99.90
6375;DHT22;35400;45.472;-122.822;2023-02-11T05:09:13;7.30;99.90
6375;DHT22;35400;45.472;-122.822;2023-02-11T05:11:40;7.30;99.90
6375;DHT22;35400;45.472;-122.822;2023-02-11T05:14:07;7.20;99.90
6375;DHT22;35400;45.472;-122.822;2023-02-11T05:16:34;7.20;99.90
6375;DHT22;35400;45.472;-122.822;2023-02-11T05:19:00;7.20;99.90
6375;DHT22;35400;45.472;-122.822;2023-02-11T05:21:27;7.10;99.90
6375;DHT22;35400;45.472;-122.822;2023-02-11T05:23:54;7.10;99.90
6375;DHT22;35400;45.472;-122.822;2023-02-11T05:26:21;7.00;99.90
6375;DHT22;35400;45.472;-122.822;2023-02-11T05:28:48;7.00;99.90
6375;DHT22;35400;45.472;-122.822;2023-02-11T05:31:15;6.90;99.90
6375;DHT22;35400;45.472;-122.822;2023-02-11T05:33:42;6.90;99.90
6375;DHT22;35400;45.472;-122.822;2023-02-11T05:36:11;6.80;99.90
6375;DHT22;35400;45.472;-122.822;2023-02-11T05:38:39;6.80;99.90
6375;DHT22;35400;45.472;-122.822;2023-02-11T05:41:06;6.80;99.90
6375;DHT22;35400;45.472;-122.822;2023-02-11T05:43:33;6.70;99.90
6375;DHT22;35400;45.472;-122.822;2023-02-11T05:46:04;6.70;99.90
6375;DHT22;35400;45.472;-122.822;2023-02-11T05:48:31;6.60;99.90
6375;DHT22;35400;45.472;-122.822;2023-02-11T05:50:58;6.60;99.90
6375;DHT22;35400;45.472;-122.822;2023-02-11T05:53:25;6.60;99.90
6375;DHT22;35400;45.472;-122.822;2023-02-11T05:55:51;6.50;99.90
6375;DHT22;35400;45.472;-122.822;2023-02-11T05:58:18;6.50;99.90
6375;DHT22;35400;45.472;-122.822;2023-02-11T06:00:45;6.50;99.90
6375;DHT22;35400;45.472;-122.822;2023-02-11T06:03:12;6.50;99.90
6375;DHT22;35400;45.472;-122.822;2023-02-11T06:05:39;6.50;99.90
6375;DHT22;35400;45.472;-122.822;2023-02-11T06:08:07;6.40;99.90
6375;DHT22;35400;45.472;-122.822;2023-02-11T06:10:35;6.40;99.90
6375;DHT22;35400;45.472;-122.822;2023-02-11T06:13:02;6.40;99.90
6375;DHT22;35400;45.472;-122.822;2023-02-11T06:15:28;6.30;99.90
6375;DHT22;35400;45.472;-122.822;2023-02-11T06:17:55;6.30;99.90
6375;DHT22;35400;45.472;-122.822;2023-02-11T06:20:22;6.30;99.90
6375;DHT22;35400;45.472;-122.822;2023-02-11T06:22:49;6.20;99.90
6375;DHT22;35400;45.472;-122.822;2023-02-11T06:25:16;6.20;99.90
6375;DHT22;35400;45.472;-122.822;2023-02-11T06:27:43;6.20;99.90
6375;DHT22;35400;45.472;-122.822;2023-02-11T06:30:10;6.10;99.90
6375;DHT22;35400;45.472;-122.822;2023-02-11T06:32:37;6.10;99.90
6375;DHT22;35400;45.472;-122.822;2023-02-11T06:35:04;6.10;99.90
6375;DHT22;35400;45.472;-122.822;2023-02-11T06:37:33;6.10;99.90
6375;DHT22;35400;45.472;-122.822;2023-02-11T06:40:00;6.10;99.90
6375;DHT22;35400;45.472;-122.822;2023-02-11T06:42:27;6.00;99.90
6375;DHT22;35400;45.472;-122.822;2023-02-11T06:44:54;6.00;99.90
6375;DHT22;35400;45.472;-122.822;2023-02-11T06:47:20;6.00;99.90
6375;DHT22;35400;45.472;-122.822;2023-02-11T06:49:47;6.00;99.90
6375;DHT22;35400;45.472;-122.822;2023-02-11T06:52:14;5.90;99.90
6375;DHT22;35400;45.472;-122.822;2023-02-11T06:54:41;5.90;99.90
6375;DHT22;35400;45.472;-122.822;2023-02-11T06:57:08;5.90;99.90
6375;DHT22;35400;45.472;-122.822;2023-02-11T06:59:34;5.90;99.90
6375;DHT22;35400;45.472;-122.822;2023-02-11T07:02:01;5.80;99.90
6375;DHT22;35400;45.472;-122.822;2023-02-11T07:04:28;5.80;99.90
6375;DHT22;35400;45.472;-122.822;2023-02-11T07:06:55;5.80;99.90
6375;DHT22;35400;45.472;-122.822;2023-02-11T07:09:22;5.80;99.90
6375;DHT22;35400;45.472;-122.822;2023-02-11T07:11:49;5.80;99.90
6375;DHT22;35400;45.472;-122.822;2023-02-11T07:14:16;5.70;99.90
6375;DHT22;35400;45.472;-122.822;2023-02-11T07:16:43;5.70;99.90
6375;DHT22;35400;45.472;-122.822;2023-02-11T07:19:09;5.70;99.90
6375;DHT22;35400;45.472;-122.822;2023-02-11T07:21:36;5.70;99.90
6375;DHT22;35400;45.472;-122.822;2023-02-11T07:24:07;5.70;99.90
6375;DHT22;35400;45.472;-122.822;2023-02-11T07:26:35;5.60;99.90
6375;DHT22;35400;45.472;-122.822;2023-02-11T07:29:02;5.60;99.90
6375;DHT22;35400;45.472;-122.822;2023-02-11T07:31:29;5.60;99.90
6375;DHT22;35400;45.472;-122.822;2023-02-11T07:33:59;5.50;99.90
6375;DHT22;35400;45.472;-122.822;2023-02-11T07:36:28;5.50;99.90
6375;DHT22;35400;45.472;-122.822;2023-02-11T07:38:55;5.50;99.90
6375;DHT22;35400;45.472;-122.822;2023-02-11T07:41:23;5.50;99.90
6375;DHT22;35400;45.472;-122.822;2023-02-11T07:43:50;5.40;99.90
6375;DHT22;35400;45.472;-122.822;2023-02-11T07:46:20;5.40;99.90
6375;DHT22;35400;45.472;-122.822;2023-02-11T07:48:48;5.40;99.90
6375;DHT22;35400;45.472;-122.822;2023-02-11T07:51:33;5.40;99.90
6375;DHT22;35400;45.472;-122.822;2023-02-11T07:54:00;5.30;99.90
6375;DHT22;35400;45.472;-122.822;2023-02-11T07:56:27;5.30;99.90
6375;DHT22;35400;45.472;-122.822;2023-02-11T07:58:57;5.30;99.90
6375;DHT22;35400;45.472;-122.822;2023-02-11T08:01:25;5.30;99.90
6375;DHT22;35400;45.472;-122.822;2023-02-11T08:03:56;5.20;99.90
6375;DHT22;35400;45.472;-122.822;2023-02-11T08:06:25;5.20;99.90
6375;DHT22;35400;45.472;-122.822;2023-02-11T08:08:53;5.20;99.90
6375;DHT22;35400;45.472;-122.822;2023-02-11T08:11:22;5.20;99.90
6375;DHT22;35400;45.472;-122.822;2023-02-11T08:13:49;5.10;99.90
6375;DHT22;35400;45.472;-122.822;2023-02-11T08:16:29;5.10;99.90
6375;DHT22;35400;45.472;-122.822;2023-02-11T08:18:59;5.10;99.90
6375;DHT22;35400;45.472;-122.822;2023-02-11T08:21:27;5.10;99.90
6375;DHT22;35400;45.472;-122.822;2023-02-11T08:23:54;5.00;99.90
6375;DHT22;35400;45.472;-122.822;2023-02-11T08:26:24;5.00;99.90
6375;DHT22;35400;45.472;-122.822;2023-02-11T08:28:52;4.90;99.90
6375;DHT22;35400;45.472;-122.822;2023-02-11T08:31:25;4.90;99.90
6375;DHT22;35400;45.472;-122.822;2023-02-11T08:33:52;4.90;99.90
6375;DHT22;35400;45.472;-122.822;2023-02-11T08:36:21;4.80;99.90
6375;DHT22;35400;45.472;-122.822;2023-02-11T08:38:49;4.80;99.90
6375;DHT22;35400;45.472;-122.822;2023-02-11T08:41:16;4.80;99.90
6375;DHT22;35400;45.472;-122.822;2023-02-11T08:43:44;4.80;99.90
6375;DHT22;35400;45.472;-122.822;2023-02-11T08:46:13;4.70;99.90
6375;DHT22;35400;45.472;-122.822;2023-02-11T08:48:41;4.70;99.90
6375;DHT22;35400;45.472;-122.822;2023-02-11T08:51:09;4.70;99.90
6375;DHT22;35400;45.472;-122.822;2023-02-11T08:53:37;4.60;99.90
6375;DHT22;35400;45.472;-122.822;2023-02-11T08:56:05;4.60;99.90
6375;DHT22;35400;45.472;-122.822;2023-02-11T08:58:32;4.60;99.90
6375;DHT22;35400;45.472;-122.822;2023-02-11T09:00:59;4.60;99.90
6375;DHT22;35400;45.472;-122.822;2023-02-11T09:03:26;4.50;99.90
6375;DHT22;35400;45.472;-122.822;2023-02-11T09:05:53;4.50;99.90
6375;DHT22;35400;45.472;-122.822;2023-02-11T09:08:20;4.50;99.90
6375;DHT22;35400;45.472;-122.822;2023-02-11T09:10:47;4.40;99.90
6375;DHT22;35400;45.472;-122.822;2023-02-11T09:13:13;4.40;99.90
6375;DHT22;35400;45.472;-122.822;2023-02-11T09:15:44;4.40;99.90
6375;DHT22;35400;45.472;-122.822;2023-02-11T09:18:12;4.30;99.90
6375;DHT22;35400;45.472;-122.822;2023-02-11T09:20:39;4.30;99.90
6375;DHT22;35400;45.472;-122.822;2023-02-11T09:23:06;4.20;99.90
6375;DHT22;35400;45.472;-122.822;2023-02-11T09:25:32;4.20;99.90
6375;DHT22;35400;45.472;-122.822;2023-02-11T09:28:00;4.20;99.90
6375;DHT22;35400;45.472;-122.822;2023-02-11T09:30:26;4.10;99.90
6375;DHT22;35400;45.472;-122.822;2023-02-11T09:32:53;4.10;99.90
6375;DHT22;35400;45.472;-122.822;2023-02-11T09:35:20;4.10;99.90
6375;DHT22;35400;45.472;-122.822;2023-02-11T09:37:47;4.00;99.90
6375;DHT22;35400;45.472;-122.822;2023-02-11T09:40:14;4.00;99.90
6375;DHT22;35400;45.472;-122.822;2023-02-11T09:43:01;3.90;99.90
6375;DHT22;35400;45.472;-122.822;2023-02-11T09:45:30;3.90;99.90
6375;DHT22;35400;45.472;-122.822;2023-02-11T09:48:01;3.90;99.90
6375;DHT22;35400;45.472;-122.822;2023-02-11T09:50:41;3.90;99.90
6375;DHT22;35400;45.472;-122.822;2023-02-11T09:53:25;3.80;99.90
6375;DHT22;35400;45.472;-122.822;2023-02-11T09:55:55;3.80;99.90
6375;DHT22;35400;45.472;-122.822;2023-02-11T09:58:37;3.80;99.90
6375;DHT22;35400;45.472;-122.822;2023-02-11T10:06:27;3.70;99.90
6375;DHT22;35400;45.472;-122.822;2023-02-11T10:17:50;3.60;99.90
6375;DHT22;35400;45.472;-122.822;2023-02-11T10:22:57;3.50;99.90
6375;DHT22;35400;45.472;-122.822;2023-02-11T10:25:32;3.50;99.90
6375;DHT22;35400;45.472;-122.822;2023-02-11T10:28:09;3.50;99.90
6375;DHT22;35400;45.472;-122.822;2023-02-11T10:30:42;3.40;99.90
6375;DHT22;35400;45.472;-122.822;2023-02-11T10:34:04;3.40;99.90
6375;DHT22;35400;45.472;-122.822;2023-02-11T10:36:05;3.40;99.90
6375;DHT22;35400;45.472;-122.822;2023-02-11T10:38:32;3.40;99.90
6375;DHT22;35400;45.472;-122.822;2023-02-11T10:41:02;3.30;99.90
6375;DHT22;35400;45.472;-122.822;2023-02-11T10:43:31;3.30;99.90
6375;DHT22;35400;45.472;-122.822;2023-02-11T10:45:59;3.30;99.90
6375;DHT22;35400;45.472;-122.822;2023-02-11T10:48:40;3.20;99.90
6375;DHT22;35400;45.472;-122.822;2023-02-11T10:51:15;3.20;99.90
6375;DHT22;35400;45.472;-122.822;2023-02-11T10:53:43;3.20;99.90
6375;DHT22;35400;45.472;-122.822;2023-02-11T10:56:24;3.20;99.90
6375;DHT22;35400;45.472;-122.822;2023-02-11T10:59:01;3.10;99.90
6375;DHT22;35400;45.472;-122.822;2023-02-11T11:03:57;3.10;99.90
6375;DHT22;35400;45.472;-122.822;2023-02-11T11:06:32;3.00;99.90
6375;DHT22;35400;45.472;-122.822;2023-02-11T11:08:59;3.00;99.90
6375;DHT22;35400;45.472;-122.822;2023-02-11T11:11:27;3.00;99.90
6375;DHT22;35400;45.472;-122.822;2023-02-11T11:13:58;2.90;99.90
6375;DHT22;35400;45.472;-122.822;2023-02-11T11:21:52;2.90;99.90
6375;DHT22;35400;45.472;-122.822;2023-02-11T11:26:58;2.80;99.90
6375;DHT22;35400;45.472;-122.822;2023-02-11T11:29:38;2.80;99.90
6375;DHT22;35400;45.472;-122.822;2023-02-11T11:32:19;2.80;99.90
6375;DHT22;35400;45.472;-122.822;2023-02-11T11:34:57;2.80;99.90
6375;DHT22;35400;45.472;-122.822;2023-02-11T11:37:31;2.70;99.90
6375;DHT22;35400;45.472;-122.822;2023-02-11T11:40:07;2.70;99.90
6375;DHT22;35400;45.472;-122.822;2023-02-11T11:42:37;2.70;99.90
6375;DHT22;35400;45.472;-122.822;2023-02-11T11:50:36;2.60;99.90
6375;DHT22;35400;45.472;-122.822;2023-02-11T11:53:27;2.50;99.90
6375;DHT22;35400;45.472;-122.822;2023-02-11T11:56:03;2.50;99.90
6375;DHT22;35400;45.472;-122.822;2023-02-11T11:58:31;2.50;99.90
6375;DHT22;35400;45.472;-122.822;2023-02-11T12:40:14;1.90;99.90
6375;DHT22;35400;45.472;-122.822;2023-02-11T12:46:07;1.80;99.90
6375;DHT22;35400;45.472;-122.822;2023-02-11T12:51:49;1.80;99.90
6375;DHT22;35400;45.472;-122.822;2023-02-11T12:54:29;1.80;99.90
6375;DHT22;35400;45.472;-122.822;2023-02-11T12:57:23;1.70;99.90
6375;DHT22;35400;45.472;-122.822;2023-02-11T13:02:59;1.70;99.90
6375;DHT22;35400;45.472;-122.822;2023-02-11T13:05:38;1.60;99.90
6375;DHT22;35400;45.472;-122.822;2023-02-11T13:08:16;1.60;99.90
6375;DHT22;35400;45.472;-122.822;2023-02-11T13:10:51;1.60;99.90
6375;DHT22;35400;45.472;-122.822;2023-02-11T13:13:27;1.50;99.90
6375;DHT22;35400;45.472;-122.822;2023-02-11T13:16:01;1.50;99.90
6375;DHT22;35400;45.472;-122.822;2023-02-11T13:26:32;1.40;99.90
6375;DHT22;35400;45.472;-122.822;2023-02-11T13:29:37;1.30;99.90
6375;DHT22;35400;45.472;-122.822;2023-02-11T13:32:10;1.30;99.90
6375;DHT22;35400;45.472;-122.822;2023-02-11T13:37:33;1.20;99.90
6375;DHT22;35400;45.472;-122.822;2023-02-11T13:40:21;1.20;99.90
6375;DHT22;35400;45.472;-122.822;2023-02-11T13:45:44;1.20;99.90
6375;DHT22;35400;45.472;-122.822;2023-02-11T13:50:48;1.10;99.90
6375;DHT22;35400;45.472;-122.822;2023-02-11T13:53:17;1.10;99.90
6375;DHT22;35400;45.472;-122.822;2023-02-11T13:55:46;1.00;99.90
6375;DHT22;35400;45.472;-122.822;2023-02-11T14:00:46;1.00;99.90
6375;DHT22;35400;45.472;-122.822;2023-02-11T14:11:51;0.90;99.90
6375;DHT22;35400;45.472;-122.822;2023-02-11T14:14:24;0.90;99.90
6375;DHT22;35400;45.472;-122.822;2023-02-11T14:19:38;1.00;99.90
6375;DHT22;35400;45.472;-122.822;2023-02-11T14:24:45;1.10;99.90
6375;DHT22;35400;45.472;-122.822;2023-02-11T14:30:11;1.30;99.90
6375;DHT22;35400;45.472;-122.822;2023-02-11T14:41:03;1.50;99.90
6375;DHT22;35400;45.472;-122.822;2023-02-11T14:44:03;1.60;99.90
6375;DHT22;35400;45.472;-122.822;2023-02-11T14:46:31;1.60;99.90
6375;DHT22;35400;45.472;-122.822;2023-02-11T14:49:02;1.70;99.90
6375;DHT22;35400;45.472;-122.822;2023-02-11T14:51:40;1.80;99.90
6375;DHT22;35400;45.472;-122.822;2023-02-11T14:54:18;1.90;99.90
6375;DHT22;35400;45.472;-122.822;2023-02-11T14:57:16;2.00;99.90
6375;DHT22;35400;45.472;-122.822;2023-02-11T15:00:07;2.00;99.90
6375;DHT22;35400;45.472;-122.822;2023-02-11T15:02:42;2.10;99.90
6375;DHT22;35400;45.472;-122.822;2023-02-11T15:05:20;2.20;99.90
6375;DHT22;35400;45.472;-122.822;2023-02-11T15:07:53;2.30;99.90
6375;DHT22;35400;45.472;-122.822;2023-02-11T15:10:33;2.30;99.90
6375;DHT22;35400;45.472;-122.822;2023-02-11T15:13:02;2.40;99.90
6375;DHT22;35400;45.472;-122.822;2023-02-11T15:15:31;2.40;99.90
6375;DHT22;35400;45.472;-122.822;2023-02-11T15:18:02;2.40;99.90
6375;DHT22;35400;45.472;-122.822;2023-02-11T15:20:31;2.40;99.90
6375;DHT22;35400;45.472;-122.822;2023-02-11T15:23:01;2.40;99.90
6375;DHT22;35400;45.472;-122.822;2023-02-11T15:25:30;2.40;99.90
6375;DHT22;35400;45.472;-122.822;2023-02-11T15:27:57;2.40;99.90
6375;DHT22;35400;45.472;-122.822;2023-02-11T15:30:30;2.40;99.90
6375;DHT22;35400;45.472;-122.822;2023-02-11T15:33:00;2.40;99.90
6375;DHT22;35400;45.472;-122.822;2023-02-11T15:35:38;2.40;99.90
6375;DHT22;35400;45.472;-122.822;2023-02-11T15:38:06;2.40;99.90
6375;DHT22;35400;45.472;-122.822;2023-02-11T15:40:35;2.50;99.90
6375;DHT22;35400;45.472;-122.822;2023-02-11T15:43:07;2.50;99.90
6375;DHT22;35400;45.472;-122.822;2023-02-11T15:51:03;2.50;99.90
6375;DHT22;35400;45.472;-122.822;2023-02-11T15:53:39;2.60;99.90
6375;DHT22;35400;45.472;-122.822;2023-02-11T15:56:22;2.60;99.90
6375;DHT22;35400;45.472;-122.822;2023-02-11T15:58:52;2.60;99.90
6375;DHT22;35400;45.472;-122.822;2023-02-11T16:01:34;2.70;99.90
6375;DHT22;35400;45.472;-122.822;2023-02-11T16:04:02;2.70;99.90
6375;DHT22;35400;45.472;-122.822;2023-02-11T16:06:37;2.80;99.90
6375;DHT22;35400;45.472;-122.822;2023-02-11T16:11:58;2.90;99.90
6375;DHT22;35400;45.472;-122.822;2023-02-11T16:17:06;2.90;99.90
6375;DHT22;35400;45.472;-122.822;2023-02-11T16:19:35;3.00;99.90
6375;DHT22;35400;45.472;-122.822;2023-02-11T16:22:07;3.10;99.90
6375;DHT22;35400;45.472;-122.822;2023-02-11T16:24:36;3.10;99.90
6375;DHT22;35400;45.472;-122.822;2023-02-11T16:27:17;3.20;99.90
6375;DHT22;35400;45.472;-122.822;2023-02-11T16:29:47;3.20;99.90
6375;DHT22;35400;45.472;-122.822;2023-02-11T16:32:18;3.30;99.90
6375;DHT22;35400;45.472;-122.822;2023-02-11T16:34:45;3.40;99.90
6375;DHT22;35400;45.472;-122.822;2023-02-11T16:37:12;3.40;99.90
6375;DHT22;35400;45.472;-122.822;2023-02-11T16:39:39;3.50;99.90
6375;DHT22;35400;45.472;-122.822;2023-02-11T16:42:06;3.60;99.90
6375;DHT22;35400;45.472;-122.822;2023-02-11T16:44:33;3.60;99.90
6375;DHT22;35400;45.472;-122.822;2023-02-11T16:47:01;3.70;99.90
6375;DHT22;35400;45.472;-122.822;2023-02-11T16:49:34;3.80;99.90
6375;DHT22;35400;45.472;-122.822;2023-02-11T16:52:07;3.80;99.90
6375;DHT22;35400;45.472;-122.822;2023-02-11T16:54:34;3.90;99.90
6375;DHT22;35400;45.472;-122.822;2023-02-11T16:57:04;4.00;99.90
6375;DHT22;35400;45.472;-122.822;2023-02-11T16:59:31;4.10;99.90
6375;DHT22;35400;45.472;-122.822;2023-02-11T17:01:58;4.10;99.90
6375;DHT22;35400;45.472;-122.822;2023-02-11T17:04:29;4.20;99.90
6375;DHT22;35400;45.472;-122.822;2023-02-11T17:06:58;4.30;99.90
6375;DHT22;35400;45.472;-122.822;2023-02-11T17:09:26;4.30;99.90
6375;DHT22;35400;45.472;-122.822;2023-02-11T17:11:53;4.40;99.90
6375;DHT22;35400;45.472;-122.822;2023-02-11T17:14:20;4.50;99.90
6375;DHT22;35400;45.472;-122.822;2023-02-11T17:16:47;4.50;99.90
6375;DHT22;35400;45.472;-122.822;2023-02-11T17:19:17;4.60;99.90
6375;DHT22;35400;45.472;-122.822;2023-02-11T17:21:46;4.60;99.90
6375;DHT22;35400;45.472;-122.822;2023-02-11T17:24:14;4.70;99.90
6375;DHT22;35400;45.472;-122.822;2023-02-11T17:26:42;4.70;99.90
6375;DHT22;35400;45.472;-122.822;2023-02-11T17:29:12;4.70;99.90
6375;DHT22;35400;45.472;-122.822;2023-02-11T17:31:40;4.80;99.90
6375;DHT22;35400;45.472;-122.822;2023-02-11T17:34:06;4.80;99.90
6375;DHT22;35400;45.472;-122.822;2023-02-11T17:36:33;4.90;99.90
6375;DHT22;35400;45.472;-122.822;2023-02-11T17:39:01;4.90;99.90
6375;DHT22;35400;45.472;-122.822;2023-02-11T17:41:27;4.90;99.90
6375;DHT22;35400;45.472;-122.822;2023-02-11T17:43:57;5.00;99.90
6375;DHT22;35400;45.472;-122.822;2023-02-11T17:46:25;5.10;99.90
6375;DHT22;35400;45.472;-122.822;2023-02-11T17:48:54;5.10;99.90
6375;DHT22;35400;45.472;-122.822;2023-02-11T17:51:27;5.10;99.90
6375;DHT22;35400;45.472;-122.822;2023-02-11T17:54:01;5.10;99.90
6375;DHT22;35400;45.472;-122.822;2023-02-11T17:56:31;5.20;99.90
6375;DHT22;35400;45.472;-122.822;2023-02-11T17:58:58;5.20;99.90
6375;DHT22;35400;45.472;-122.822;2023-02-11T18:01:32;5.30;99.90
6375;DHT22;35400;45.472;-122.822;2023-02-11T18:03:59;5.30;99.90
6375;DHT22;35400;45.472;-122.822;2023-02-11T18:06:26;5.30;99.90
6375;DHT22;35400;45.472;-122.822;2023-02-11T18:08:59;5.30;99.90
6375;DHT22;35400;45.472;-122.822;2023-02-11T18:11:29;5.30;99.90
6375;DHT22;35400;45.472;-122.822;2023-02-11T18:13:58;5.30;99.90
6375;DHT22;35400;45.472;-122.822;2023-02-11T18:16:25;5.40;99.90
6375;DHT22;35400;45.472;-122.822;2023-02-11T18:18:55;5.40;99.90
6375;DHT22;35400;45.472;-122.822;2023-02-11T18:21:23;5.40;99.90